Time;durP1;ratioP1;P1;durP2;ratioP2;P2;SDS_P1;SDS_P2;PMS_P1;PMS_P2;Temp;Humidity;BMP_temperature;BMP_pressure;BME280_temperature;BME280_humidity;BME280_pressure;Samples;Min_cycle;Max_cycle;Signal;HPM_P1;HPM_P2
2022/10/12 00:01:53;;;;;;;104.00;54.13;;;;;;;4.08;75.65;101369.06;2148568;82;32368;-66
2022/10/12 00:04:54;;;;;;;106.30;54.40;;;;;;;4.05;75.67;101365.56;2132722;81;33410;-65
2022/10/12 00:07:55;;;;;;;109.00;52.90;;;;;;;4.02;75.68;101366.44;2141067;80;29765;-65
2022/10/12 00:10:56;;;;;;;102.92;55.63;;;;;;;4.00;75.71;101372.19;2143525;82;27948;-65
2022/10/12 00:13:58;;;;;;;105.52;54.55;;;;;;;3.96;75.65;101369.14;2148229;81;29129;-66
2022/10/12 00:16:59;;;;;;;98.25;52.25;;;;;;;3.93;75.75;101359.88;2147102;82;31979;-65
2022/10/12 00:20:02;;;;;;;102.40;55.70;;;;;;;3.90;75.64;101355.90;2136573;82;33413;-65
2022/10/12 00:23:04;;;;;;;105.32;53.10;;;;;;;3.88;75.68;101360.33;2164326;81;30188;-66
2022/10/12 00:26:12;;;;;;;109.03;53.33;;;;;;;3.85;75.74;101362.98;2169135;80;27677;-66
2022/10/12 00:29:14;;;;;;;104.55;52.43;;;;;;;3.84;75.75;101363.88;2163469;80;28761;-66
2022/10/12 00:32:17;;;;;;;101.12;52.05;;;;;;;3.82;75.80;101364.31;2141971;81;31066;-66
2022/10/12 00:35:18;;;;;;;90.15;50.48;;;;;;;3.79;75.83;101366.13;2178053;81;34111;-66
2022/10/12 00:38:21;;;;;;;106.32;52.43;;;;;;;3.76;75.76;101368.78;2149390;80;29294;-67
2022/10/12 00:41:30;;;;;;;92.65;50.10;;;;;;;3.73;75.87;101366.14;2180431;80;27719;-66
2022/10/12 00:44:46;;;;;;;92.57;50.92;;;;;;;3.71;75.89;101373.20;2183037;80;29089;-66
2022/10/12 00:47:51;;;;;;;96.75;49.13;;;;;;;3.66;75.89;101368.36;2191497;80;31057;-65
2022/10/12 00:50:53;;;;;;;98.50;48.95;;;;;;;3.64;75.87;101375.00;2178825;80;33900;-67
2022/10/12 00:53:59;;;;;;;103.80;51.18;;;;;;;3.61;75.90;101377.66;2163986;80;29698;-67
2022/10/12 00:57:03;;;;;;;97.35;49.08;;;;;;;3.59;75.96;101371.94;2185749;80;27800;-67
2022/10/12 01:00:08;;;;;;;96.05;50.60;;;;;;;3.57;75.99;101375.89;2192713;80;29548;-67
2022/10/12 01:03:13;;;;;;;92.40;49.42;;;;;;;3.55;76.01;101383.00;2183372;81;31129;-67
2022/10/12 01:06:15;;;;;;;98.95;50.78;;;;;;;3.52;76.00;101376.80;2179594;80;33408;-67
2022/10/12 01:09:16;;;;;;;104.50;52.13;;;;;;;3.49;75.95;101376.37;2173499;80;29354;-67
2022/10/12 01:12:19;;;;;;;96.70;50.52;;;;;;;3.45;75.97;101374.19;2174140;80;27753;-67
2022/10/12 01:15:22;;;;;;;101.90;51.60;;;;;;;3.42;76.01;101377.27;2176964;80;29948;-67
2022/10/12 01:18:35;;;;;;;104.03;51.75;;;;;;;3.39;76.15;101380.81;2183181;80;31449;-67
2022/10/12 01:21:41;;;;;;;93.20;49.73;;;;;;;3.36;76.16;101375.52;2171563;80;33007;-66
2022/10/12 01:25:11;;;;;;;94.92;51.88;;;;;;;3.33;76.17;101376.42;2127516;82;29398;-67
2022/10/12 01:28:54;;;;;;;98.27;51.37;;;;;;;3.31;76.24;101372.02;2134480;81;27739;-66
2022/10/12 01:32:41;;;;;;;105.72;54.77;;;;;;;3.29;76.23;101368.03;2141342;80;29136;-67
2022/10/12 01:36:02;;;;;;;91.12;51.77;;;;;;;3.25;76.19;101374.21;2152987;82;31914;-65
2022/10/12 01:39:12;;;;;;;102.72;53.00;;;;;;;3.21;76.24;101379.09;2146005;82;32067;-67
2022/10/12 01:42:24;;;;;;;109.32;52.90;;;;;;;3.17;76.22;101377.33;2143641;81;29427;-67
2022/10/12 01:45:25;;;;;;;101.42;51.45;;;;;;;3.16;76.31;101379.08;2137622;82;27671;-67
2022/10/12 01:48:26;;;;;;;96.42;50.05;;;;;;;3.15;76.36;101383.06;2142894;82;29077;-66
2022/10/12 01:51:51;;;;;;;91.92;49.95;;;;;;;3.13;76.31;101384.83;2147048;81;31450;-66
2022/10/12 01:55:18;;;;;;;97.37;51.87;;;;;;;3.09;76.45;101380.41;2161212;81;33356;-64
2022/10/12 01:58:55;;;;;;;97.15;51.83;;;;;;;3.09;76.45;101380.41;2185512;80;30178;-65
2022/10/12 02:02:17;;;;;;;99.65;50.58;;;;;;;3.09;76.49;101385.28;2166313;80;28003;-66
2022/10/12 02:05:27;;;;;;;100.35;53.33;;;;;;;3.08;76.51;101374.68;2182435;80;28706;-67
2022/10/12 02:08:46;;;;;;;100.07;50.33;;;;;;;3.04;76.41;101376.03;2159118;80;31450;-67
2022/10/12 02:11:49;;;;;;;95.25;48.90;;;;;;;3.02;76.56;101375.58;2156636;81;33409;-66
2022/10/12 02:14:58;;;;;;;94.75;48.28;;;;;;;2.99;76.54;101378.22;2169860;80;29736;-67
2022/10/12 02:18:02;;;;;;;85.85;48.68;;;;;;;2.97;76.59;101377.36;2181512;80;28219;-67
2022/10/12 02:21:04;;;;;;;86.72;47.15;;;;;;;2.94;76.62;101374.25;2150100;81;29947;-67
2022/10/12 02:24:07;;;;;;;85.72;47.38;;;;;;;2.95;76.64;101381.77;2138012;82;31071;-67
2022/10/12 02:27:09;;;;;;;84.62;46.30;;;;;;;2.93;76.71;101376.92;2133696;82;33317;-67
2022/10/12 02:30:12;;;;;;;83.33;46.05;;;;;;;2.92;76.71;101373.38;2141844;82;29789;-68
2022/10/12 02:33:24;;;;;;;85.60;45.63;;;;;;;2.92;76.70;101374.70;2143536;82;27802;-67
2022/10/12 02:36:54;;;;;;;79.87;44.60;;;;;;;2.90;76.68;101380.42;2141275;82;28708;-68
2022/10/12 02:40:05;;;;;;;85.65;46.48;;;;;;;2.89;76.72;101378.70;2158562;82;31055;-67
2022/10/12 02:43:15;;;;;;;88.75;48.50;;;;;;;2.87;76.78;101380.00;2140055;82;33347;-67
2022/10/12 02:46:17;;;;;;;80.45;44.23;;;;;;;2.87;76.87;101383.10;2139050;82;29358;-67
2022/10/12 02:49:19;;;;;;;81.85;45.48;;;;;;;2.86;76.86;101383.52;2134068;82;27674;-66
2022/10/12 02:52:22;;;;;;;88.92;46.55;;;;;;;2.85;76.92;101375.14;2145941;80;29054;-67
2022/10/12 02:55:24;;;;;;;95.70;50.35;;;;;;;2.87;76.92;101379.13;2185914;80;31594;-67
2022/10/12 02:58:25;;;;;;;104.53;57.88;;;;;;;2.87;77.15;101380.00;2175027;80;33927;-67
2022/10/12 03:01:26;;;;;;;95.65;51.50;;;;;;;2.90;77.18;101372.48;2168181;80;29760;-67
2022/10/12 03:04:27;;;;;;;85.90;50.33;;;;;;;2.90;77.19;101369.84;2173088;81;27750;-68
2022/10/12 03:07:29;;;;;;;90.32;50.58;;;;;;;2.89;77.13;101375.59;2180359;80;28118;-67
2022/10/12 03:10:30;;;;;;;87.95;48.25;;;;;;;2.88;77.18;101380.44;2174671;80;31405;-67
2022/10/12 03:13:32;;;;;;;79.90;46.75;;;;;;;2.91;77.26;101378.68;2173904;80;33394;-68
2022/10/12 03:16:33;;;;;;;88.22;48.50;;;;;;;2.92;77.26;101376.02;2160976;80;29371;-67
2022/10/12 03:19:34;;;;;;;80.47;46.33;;;;;;;2.92;77.27;101377.80;2170687;81;27720;-68
2022/10/12 03:22:36;;;;;;;82.62;46.15;;;;;;;2.92;77.30;101378.66;2149360;81;29127;-67
2022/10/12 03:25:37;;;;;;;78.97;46.92;;;;;;;2.93;77.37;101378.23;2142179;80;30872;-68
2022/10/12 03:28:38;;;;;;;84.42;48.75;;;;;;;2.94;77.42;101374.71;2140834;82;33388;-67
2022/10/12 03:31:39;;;;;;;82.42;46.25;;;;;;;2.95;77.47;101376.48;2132901;82;30499;-69
2022/10/12 03:34:41;;;;;;;84.83;47.83;;;;;;;2.97;77.48;101377.36;2151349;82;27696;-66
2022/10/12 03:37:42;;;;;;;87.37;50.03;;;;;;;2.99;77.50;101376.89;2131810;82;28966;-66
2022/10/12 03:40:45;;;;;;;80.83;46.58;;;;;;;2.98;77.45;101383.97;2130760;82;31803;-67
2022/10/12 03:43:46;;;;;;;91.30;49.08;;;;;;;2.99;77.46;101384.84;2148573;80;33042;-67
2022/10/12 03:46:48;;;;;;;88.30;47.38;;;;;;;2.99;77.38;101381.77;2150030;82;30270;-67
2022/10/12 03:49:49;;;;;;;104.87;53.20;;;;;;;2.98;77.40;101381.32;2138932;81;27853;-66
2022/10/12 03:52:50;;;;;;;100.53;51.58;;;;;;;2.98;77.37;101383.10;2161163;80;29232;-66
2022/10/12 03:55:51;;;;;;;92.70;50.40;;;;;;;2.95;77.41;101382.64;2178246;80;31498;-66
2022/10/12 03:58:52;;;;;;;97.82;49.95;;;;;;;2.94;77.43;101379.55;2174293;80;34261;-66
2022/10/12 04:01:54;;;;;;;94.75;51.02;;;;;;;2.93;77.47;101382.21;2186407;80;29101;-68
2022/10/12 04:04:55;;;;;;;92.47;48.58;;;;;;;2.92;77.44;101379.98;2172444;80;27669;-67
2022/10/12 04:07:57;;;;;;;98.30;52.38;;;;;;;2.91;77.38;101380.00;2174739;81;29976;-66
2022/10/12 04:10:58;;;;;;;93.90;49.73;;;;;;;2.89;77.55;101383.98;2178028;80;31464;-67
2022/10/12 04:13:59;;;;;;;101.85;49.63;;;;;;;2.87;77.58;101389.72;2168366;81;34158;-67
2022/10/12 04:17:00;;;;;;;99.62;51.20;;;;;;;2.86;77.50;101394.56;2173477;81;29766;-66
2022/10/12 04:20:01;;;;;;;86.07;46.70;;;;;;;2.84;77.52;101389.25;2165379;80;28244;-65
2022/10/12 04:23:04;;;;;;;87.47;46.83;;;;;;;2.82;77.45;101389.69;2135966;81;28683;-66
2022/10/12 04:26:05;;;;;;;86.95;49.23;;;;;;;2.80;77.44;101394.55;2155893;81;32181;-67
2022/10/12 04:29:06;;;;;;;98.52;48.17;;;;;;;2.79;77.53;101393.69;2131768;82;33392;-65
2022/10/12 04:32:08;;;;;;;98.00;52.95;;;;;;;2.77;77.52;101395.87;2134075;82;29705;-66
2022/10/12 04:35:09;;;;;;;100.85;54.67;;;;;;;2.77;77.69;101399.84;2152538;82;27713;-65
2022/10/12 04:38:11;;;;;;;109.85;57.58;;;;;;;2.76;77.81;101397.65;2145241;82;29098;-66
2022/10/12 04:41:13;;;;;;;104.80;55.35;;;;;;;2.76;77.78;101404.69;2131085;82;32321;-66
2022/10/12 04:44:14;;;;;;;111.47;54.15;;;;;;;2.73;77.67;101401.16;2140669;82;33349;-66
2022/10/12 04:47:15;;;;;;;114.65;54.50;;;;;;;2.70;77.58;101402.92;2134942;82;29544;-66
2022/10/12 04:50:17;;;;;;;96.50;51.55;;;;;;;2.67;77.58;101399.84;2142521;82;28272;-65
2022/10/12 04:53:18;;;;;;;110.72;58.20;;;;;;;2.65;77.55;101402.06;2159090;80;29915;-65
2022/10/12 04:56:20;;;;;;;110.60;53.78;;;;;;;2.61;77.51;101394.54;2183517;80;31422;-66
2022/10/12 04:59:21;;;;;;;116.08;57.13;;;;;;;2.60;77.49;101403.80;2185076;80;34092;-65
2022/10/12 05:02:22;;;;;;;101.97;54.83;;;;;;;2.56;77.47;101409.09;2179158;81;29759;-65
2022/10/12 05:05:24;;;;;;;102.30;54.55;;;;;;;2.54;77.47;101407.33;2173029;81;27692;-66
2022/10/12 05:08:25;;;;;;;99.28;53.25;;;;;;;2.53;77.51;101407.75;2186502;80;29120;-65
2022/10/12 05:11:26;;;;;;;105.35;55.90;;;;;;;2.53;77.62;101409.53;2170079;80;31418;-65
2022/10/12 05:14:27;;;;;;;102.07;56.13;;;;;;;2.51;77.63;101414.80;2178132;80;32978;-65
2022/10/12 05:17:28;;;;;;;94.67;51.63;;;;;;;2.52;77.84;101418.34;2172972;80;29776;-65
2022/10/12 05:20:30;;;;;;;89.60;48.02;;;;;;;2.52;77.79;101418.34;2183621;80;27680;-65
2022/10/12 05:23:31;;;;;;;88.03;48.23;;;;;;;2.52;77.78;101414.38;2146752;80;29098;-64
2022/10/12 05:26:32;;;;;;;95.57;48.70;;;;;;;2.52;77.79;101415.70;2169767;80;32166;-65
2022/10/12 05:29:33;;;;;;;93.85;48.92;;;;;;;2.51;77.83;101424.05;2155279;81;33054;-65
2022/10/12 05:32:37;;;;;;;124.50;68.12;;;;;;;2.54;77.95;101423.20;2183109;80;30481;-65
2022/10/12 05:35:40;;;;;;;221.40;132.70;;;;;;;2.55;78.01;101415.25;2148609;80;27589;-66
2022/10/12 05:38:41;;;;;;;136.72;76.53;;;;;;;2.58;78.27;101410.40;2191748;81;29166;-66
2022/10/12 05:41:42;;;;;;;142.80;80.80;;;;;;;2.62;78.33;101423.22;2180452;80;31105;-66
2022/10/12 05:44:44;;;;;;;116.35;57.30;;;;;;;2.65;78.44;101424.09;2160900;80;33364;-65
2022/10/12 05:47:45;;;;;;;113.32;55.98;;;;;;;2.69;78.47;101414.39;2152299;80;30522;-66
2022/10/12 05:50:46;;;;;;;102.78;54.18;;;;;;;2.73;78.63;101417.48;2145875;81;27676;-66
2022/10/12 05:53:48;;;;;;;109.78;51.53;;;;;;;2.79;78.77;101422.80;2152791;81;29274;-66
2022/10/12 05:56:49;;;;;;;99.62;49.98;;;;;;;2.84;78.83;101422.34;2147125;82;32263;-66
2022/10/12 05:59:50;;;;;;;102.00;48.98;;;;;;;2.91;78.87;101419.70;2135204;82;32988;-65
2022/10/12 06:02:51;;;;;;;97.10;47.78;;;;;;;2.98;79.08;101420.16;2123604;82;30261;-66
2022/10/12 06:05:53;;;;;;;87.75;44.53;;;;;;;3.09;79.21;101422.77;2125976;82;27759;-66
2022/10/12 06:08:54;;;;;;;97.33;47.03;;;;;;;3.17;79.40;101419.23;2144876;82;28764;-65
2022/10/12 06:11:56;;;;;;;81.72;44.08;;;;;;;3.28;79.37;101423.66;2122298;82;31502;-66
2022/10/12 06:14:57;;;;;;;82.70;42.53;;;;;;;3.38;79.39;101428.51;2174262;80;33361;-65
2022/10/12 06:17:58;;;;;;;88.30;42.78;;;;;;;3.47;79.59;101424.50;2171227;80;29788;-66
2022/10/12 06:21:00;;;;;;;81.50;39.80;;;;;;;3.58;79.62;101424.03;2179739;80;28956;-66
2022/10/12 06:24:01;;;;;;;80.97;40.50;;;;;;;3.67;79.69;101428.42;2171589;80;29112;-65
2022/10/12 06:27:03;;;;;;;77.90;39.65;;;;;;;3.78;79.80;101431.94;2177926;80;31444;-66
2022/10/12 06:30:05;;;;;;;77.85;38.63;;;;;;;3.91;79.95;101433.22;2170895;80;33333;-65
2022/10/12 06:33:07;;;;;;;70.35;38.50;;;;;;;4.03;79.95;101429.64;2169798;80;29375;-66
2022/10/12 06:36:09;;;;;;;74.85;37.70;;;;;;;4.16;80.02;101431.77;2175045;81;27710;-65
2022/10/12 06:39:10;;;;;;;79.65;38.55;;;;;;;4.27;80.08;101428.64;2189730;81;28657;-65
2022/10/12 06:42:12;;;;;;;69.37;38.33;;;;;;;4.41;80.18;101433.42;2168487;80;31030;-66
2022/10/12 06:45:13;;;;;;;71.07;38.48;;;;;;;4.56;80.29;101433.77;2130193;80;33159;-66
2022/10/12 06:48:15;;;;;;;85.97;43.10;;;;;;;4.72;80.25;101431.00;2146019;82;29357;-66
2022/10/12 06:51:16;;;;;;;81.60;43.05;;;;;;;4.89;80.25;101435.30;2143412;82;27715;-66
2022/10/12 06:54:17;;;;;;;98.92;50.03;;;;;;;5.02;80.14;101433.87;2136387;82;29066;-65
2022/10/12 06:57:18;;;;;;;109.63;55.38;;;;;;;5.18;80.09;101432.42;2140729;82;31459;-66
2022/10/12 07:00:20;;;;;;;128.32;59.83;;;;;;;5.35;80.16;101435.36;2143521;82;32974;-66
2022/10/12 07:03:22;;;;;;;113.97;55.95;;;;;;;5.55;80.22;101436.48;2131307;82;29711;-65
2022/10/12 07:06:23;;;;;;;118.53;52.75;;;;;;;5.73;80.16;101442.94;2148057;81;27709;-66
2022/10/12 07:09:24;;;;;;;118.82;56.02;;;;;;;5.90;80.06;101440.11;2131348;82;29498;-65
2022/10/12 07:12:26;;;;;;;121.02;59.70;;;;;;;6.11;80.19;101436.80;2139412;81;32167;-66
2022/10/12 07:15:27;;;;;;;108.45;56.37;;;;;;;6.33;80.12;101433.39;2172148;80;33160;-66
2022/10/12 07:18:28;;;;;;;88.27;41.18;;;;;;;6.57;80.06;101440.58;2179444;80;29782;-66
2022/10/12 07:21:30;;;;;;;76.90;34.83;;;;;;;6.82;79.99;101436.23;2189832;80;27847;-66
2022/10/12 07:24:37;;;;;;;76.28;33.08;;;;;;;7.06;80.08;101432.30;2178536;80;29235;-67
2022/10/12 07:27:38;;;;;;;75.90;33.53;;;;;;;7.30;79.82;101436.32;2179606;80;31828;-65
2022/10/12 07:30:39;;;;;;;65.47;31.95;;;;;;;7.58;79.66;101436.28;2169308;80;33126;-66
2022/10/12 07:33:41;;;;;;;63.00;30.20;;;;;;;7.82;79.49;101436.26;2177745;80;29343;-66
2022/10/12 07:36:43;;;;;;;66.62;32.85;;;;;;;8.08;79.45;101432.16;2177440;80;27667;-66
2022/10/12 07:39:45;;;;;;;66.65;31.35;;;;;;;8.33;79.16;101434.32;2177781;80;29720;-65
2022/10/12 07:42:46;;;;;;;57.73;31.70;;;;;;;8.57;78.84;101432.03;2166684;80;32193;-66
2022/10/12 07:45:48;;;;;;;56.58;28.98;;;;;;;8.83;78.77;101423.87;2133297;82;33347;-66
2022/10/12 07:48:49;;;;;;;66.22;29.37;;;;;;;9.05;78.47;101433.09;2135476;82;30595;-66
2022/10/12 07:51:50;;;;;;;54.70;28.87;;;;;;;9.28;78.08;101423.15;2122608;81;27711;-66
2022/10/12 07:54:52;;;;;;;51.55;27.10;;;;;;;9.53;78.16;101420.28;2145568;81;29055;-66
2022/10/12 07:57:53;;;;;;;50.65;25.90;;;;;;;9.77;77.94;101424.55;2126386;82;31116;-66
2022/10/12 08:00:55;;;;;;;48.00;24.40;;;;;;;9.99;77.59;101428.82;2144934;81;33349;-65
2022/10/12 08:03:58;;;;;;;44.05;22.85;;;;;;;10.24;77.31;101420.94;2142213;81;30526;-66
2022/10/12 08:07:02;;;;;;;42.50;21.93;;;;;;;10.48;77.03;101423.36;2141736;82;27863;-65
2022/10/12 08:10:06;;;;;;;39.53;21.93;;;;;;;10.66;76.48;101414.33;2139911;81;30016;-66
2022/10/12 08:13:07;;;;;;;43.52;23.70;;;;;;;10.82;76.19;101421.88;2156053;80;31085;-65
2022/10/12 08:16:14;;;;;;;41.95;24.23;;;;;;;10.90;75.57;101422.03;2177710;81;33526;-65
2022/10/12 08:19:15;;;;;;;57.85;25.80;;;;;;;11.02;75.73;101419.86;2176754;80;30234;-65
2022/10/12 08:22:16;;;;;;;47.20;23.00;;;;;;;11.14;75.57;101423.95;2168464;80;27734;-65
2022/10/12 08:25:18;;;;;;;56.18;25.92;;;;;;;11.24;75.38;101415.53;2141698;81;29060;-65
2022/10/12 08:28:20;;;;;;;38.38;21.80;;;;;;;11.35;75.20;101413.83;2149465;81;32215;-64
2022/10/12 08:31:21;;;;;;;39.50;22.35;;;;;;;11.47;75.01;101413.86;2141438;81;33026;-64
2022/10/12 08:34:24;;;;;;;41.50;23.07;;;;;;;11.56;74.74;101419.38;2165648;79;30614;-64
2022/10/12 08:37:25;;;;;;;44.13;24.00;;;;;;;11.59;74.12;101419.23;2171194;80;27877;-64
2022/10/12 08:40:31;;;;;;;40.92;20.85;;;;;;;11.64;74.14;101423.13;2169832;80;28863;-64
2022/10/12 08:43:32;;;;;;;35.20;15.18;;;;;;;11.68;73.62;101419.38;2165630;80;31017;-64
2022/10/12 08:46:33;;;;;;;26.25;15.30;;;;;;;11.78;73.92;101415.44;2155675;80;37367;-64
2022/10/12 08:49:38;;;;;;;34.30;14.68;;;;;;;11.93;73.84;101415.31;2144906;82;29354;-64
2022/10/12 08:52:50;;;;;;;29.42;12.45;;;;;;;12.08;73.37;101417.94;2151873;81;28254;-64
2022/10/12 08:55:51;;;;;;;24.02;12.37;;;;;;;12.20;72.87;101415.25;2140057;82;28650;-64
2022/10/12 08:58:54;;;;;;;27.13;13.68;;;;;;;12.31;72.79;101404.96;2124358;82;31937;-65
2022/10/12 09:02:27;;;;;;;26.00;13.58;;;;;;;12.45;72.51;101407.56;2143380;82;33342;-65
2022/10/12 09:05:43;;;;;;;26.97;12.90;;;;;;;12.55;72.04;101406.73;2130057;82;29485;-65
2022/10/12 09:08:59;;;;;;;26.62;12.78;;;;;;;12.59;70.79;101405.67;2143431;82;27566;-65
2022/10/12 09:12:36;;;;;;;27.30;12.58;;;;;;;12.62;71.22;101406.91;2138025;80;29533;-65
2022/10/12 09:16:07;;;;;;;25.32;12.70;;;;;;;12.70;71.04;101402.08;2176087;79;31659;-65
2022/10/12 09:19:26;;;;;;;31.07;12.47;;;;;;;12.86;71.12;101403.67;2179022;80;33234;-65
2022/10/12 09:22:29;;;;;;;;;;;;;;;12.97;70.58;101399.66;2175428;80;29384;-65
2022/10/12 09:25:30;;;;;;;18.62;8.93;;;;;;;13.10;70.55;101395.98;2169272;79;27649;-65
2022/10/12 09:28:49;;;;;;;26.10;12.78;;;;;;;13.19;70.08;101396.92;2171039;81;29896;-65
2022/10/12 09:32:30;;;;;;;26.85;12.40;;;;;;;13.29;69.71;101395.60;2160083;80;31964;-64
2022/10/12 09:35:32;;;;;;;31.17;13.38;;;;;;;13.32;69.43;101393.23;2173161;80;32462;-65
2022/10/12 09:38:37;;;;;;;32.93;14.03;;;;;;;13.40;69.31;101392.90;2182539;80;30135;-65
2022/10/12 09:41:51;;;;;;;27.60;13.00;;;;;;;13.46;69.18;101388.64;2176570;80;27602;-65
2022/10/12 09:45:01;;;;;;;22.67;10.25;;;;;;;13.52;68.94;101383.85;2137630;81;27786;-65
2022/10/12 09:48:20;;;;;;;22.35;9.55;;;;;;;13.55;68.54;101386.01;2148814;81;31461;-65
2022/10/12 09:51:24;;;;;;;14.50;7.83;;;;;;;13.62;68.42;101392.39;2132003;82;33857;-66
2022/10/12 09:54:27;;;;;;;31.33;10.47;;;;;;;13.73;68.41;101396.41;2124400;82;29980;-65
2022/10/12 09:57:40;;;;;;;24.60;10.40;;;;;;;13.78;67.66;101397.95;2145965;80;27674;-65
2022/10/12 10:00:46;;;;;;;21.97;8.83;;;;;;;13.85;67.62;101400.38;2144508;81;28723;-65
2022/10/12 10:04:22;;;;;;;26.02;9.23;;;;;;;13.89;66.48;101396.59;2146748;81;27729;-65
2022/10/12 10:07:38;;;;;;;19.73;9.05;;;;;;;13.99;66.71;101385.78;2142258;81;47614;-65
2022/10/12 10:10:56;;;;;;;20.60;8.08;;;;;;;13.99;66.71;101385.78;2140262;81;29433;-65
2022/10/12 10:13:59;;;;;;;19.30;8.63;;;;;;;14.02;66.54;101380.27;2158124;80;27739;-65
2022/10/12 10:17:00;;;;;;;18.52;6.42;;;;;;;14.09;66.40;101383.54;2173338;80;29920;-65
2022/10/12 10:20:04;;;;;;;19.98;7.50;;;;;;;14.13;65.21;101383.80;2150472;80;27982;-65
2022/10/12 10:23:08;;;;;;;20.85;7.80;;;;;;;14.10;64.76;101380.76;2166959;80;34587;-65
2022/10/12 10:26:13;;;;;;;17.75;7.45;;;;;;;14.05;64.83;101374.73;2149246;81;30151;-65
2022/10/12 10:29:24;;;;;;;;;;;;;;;14.05;64.08;101375.19;2176348;80;27742;-65
2022/10/12 10:32:27;;;;;;;15.70;7.53;;;;;;;14.07;64.32;101371.95;2142167;80;29121;-65
2022/10/12 10:35:29;;;;;;;15.75;6.83;;;;;;;14.09;64.20;101370.06;2168278;80;31933;-65
2022/10/12 10:38:51;;;;;;;16.57;7.62;;;;;;;14.07;63.86;101369.27;2168387;80;33028;-65
2022/10/12 10:41:54;;;;;;;18.67;7.65;;;;;;;14.07;63.86;101369.27;2154915;80;29719;-66
2022/10/12 10:45:03;;;;;;;13.72;5.90;;;;;;;14.09;63.09;101366.02;2137832;82;27574;-65
2022/10/12 10:48:11;;;;;;;27.95;12.05;;;;;;;14.08;62.54;101361.58;2136454;81;28671;-66
2022/10/12 10:51:13;;;;;;;15.00;7.50;;;;;;;14.10;62.59;101366.42;2136392;82;31054;-66
2022/10/12 10:54:29;;;;;;;25.17;7.80;;;;;;;14.12;62.63;101360.01;2132101;82;34085;-66
2022/10/12 10:57:32;;;;;;;15.30;6.08;;;;;;;14.17;62.82;101354.88;2144790;82;29738;-65
2022/10/12 11:00:35;;;;;;;19.90;7.20;;;;;;;14.25;63.30;101358.95;2143001;82;27688;-65
2022/10/12 11:03:57;;;;;;;18.57;6.33;;;;;;;14.32;62.89;101351.90;2137989;82;29037;-65
2022/10/12 11:07:10;;;;;;;13.28;5.62;;;;;;;14.38;62.64;101345.77;2128675;82;32413;-65
2022/10/12 11:10:26;;;;;;;16.42;5.92;;;;;;;14.44;61.25;101345.44;2131231;83;33140;-65
2022/10/12 11:13:43;;;;;;;15.28;5.37;;;;;;;14.34;62.14;101311.81;2148134;81;30146;-65
2022/10/12 11:17:03;;;;;;;13.10;4.47;;;;;;;14.59;61.31;101338.89;2140797;81;27703;-66
2022/10/12 11:20:30;;;;;;;10.25;4.08;;;;;;;14.62;60.87;101338.74;2153307;81;30011;-66
2022/10/12 11:23:52;;;;;;;10.72;4.47;;;;;;;14.68;60.75;101336.23;2147311;81;32284;-66
2022/10/12 11:27:04;;;;;;;17.82;4.78;;;;;;;14.76;60.96;101335.39;2149998;81;33128;-66
2022/10/12 11:30:16;;;;;;;18.27;3.98;;;;;;;14.86;61.10;101333.10;2142639;81;29735;-67
2022/10/12 11:33:37;;;;;;;11.28;3.65;;;;;;;14.89;60.64;101320.32;2126136;81;27816;-66
2022/10/12 11:36:38;;;;;;;15.10;3.75;;;;;;;15.08;60.48;101327.92;2148634;80;29958;-66
2022/10/12 11:39:46;;;;;;;12.25;3.83;;;;;;;15.14;58.70;101328.47;2153676;81;31592;-66
2022/10/12 11:42:48;;;;;;;15.80;3.75;;;;;;;15.20;59.74;101325.95;2131679;81;32975;-66
2022/10/12 11:45:56;;;;;;;16.90;4.30;;;;;;;15.28;59.02;101321.01;2121394;82;30500;-66
2022/10/12 11:49:03;;;;;;;15.45;4.50;;;;;;;15.38;59.31;101325.94;2132884;82;27735;-66
2022/10/12 11:52:09;;;;;;;16.17;4.50;;;;;;;15.48;59.63;101315.02;2142326;81;29575;-66
2022/10/12 11:55:28;;;;;;;15.55;5.12;;;;;;;15.58;59.23;101317.61;2153139;80;31058;-66
2022/10/12 11:58:34;;;;;;;15.03;4.70;;;;;;;15.70;59.25;101312.52;2140285;82;33174;-66
2022/10/12 12:02:20;;;;;;;10.58;4.65;;;;;;;15.79;59.08;101307.94;2116234;82;29316;-66
2022/10/12 12:05:22;;;;;;;9.23;4.28;;;;;;;15.85;59.07;101307.64;2143760;81;27709;-66
2022/10/12 12:08:40;;;;;;;17.67;5.72;;;;;;;15.86;58.87;101309.84;2145334;80;29878;-66
2022/10/12 12:11:41;;;;;;;12.40;4.80;;;;;;;15.80;58.10;101299.73;2148681;80;31445;-65
2022/10/12 12:14:54;;;;;;;13.55;4.25;;;;;;;15.67;57.23;101301.87;2165112;80;32987;-65
2022/10/12 12:18:20;;;;;;;15.88;4.87;;;;;;;15.55;57.31;101301.59;2166588;79;30567;-65
2022/10/12 12:21:21;;;;;;;;;;;;;;;15.55;57.68;101301.59;2168984;80;27720;-65
2022/10/12 12:24:26;;;;;;;11.05;4.65;;;;;;;15.50;56.74;101292.86;2156109;81;29156;-65
2022/10/12 12:27:39;;;;;;;;;;;;;;;15.44;57.23;101293.19;2168653;80;30275;-65
2022/10/12 12:30:40;;;;;;;12.05;4.45;;;;;;;15.41;56.59;101292.88;2175409;80;33544;-66
2022/10/12 12:33:48;;;;;;;13.80;5.22;;;;;;;15.31;56.82;101293.86;2174201;80;30091;-65
2022/10/12 12:36:50;;;;;;;11.65;3.95;;;;;;;15.29;56.84;101290.36;2163271;80;27776;-65
2022/10/12 12:39:55;;;;;;;14.75;3.75;;;;;;;15.33;56.80;101296.45;2148354;81;28726;-65
2022/10/12 12:43:19;;;;;;;;;;;;;;;15.34;56.39;101290.99;2149055;81;31031;-65
2022/10/12 12:46:23;;;;;;;21.23;10.53;;;;;;;15.33;55.94;101292.41;2056140;85;34136;-65
2022/10/12 12:49:48;;;;;;;18.60;9.37;;;;;;;15.32;56.45;101291.55;2070886;85;29495;-65
2022/10/12 12:52:50;;;;;;;12.00;4.43;;;;;;;15.37;56.23;101292.64;2063078;85;27761;-66
2022/10/12 12:56:07;;;;;;;15.63;3.62;;;;;;;15.42;56.42;101296.44;2071061;84;29076;-66
2022/10/12 12:59:37;;;;;;;10.65;4.20;;;;;;;15.42;55.32;101295.09;2058303;85;31006;-67
2022/10/12 13:03:09;;;;;;;14.47;6.53;;;;;;;15.41;55.80;101287.94;2071728;84;33378;-65
2022/10/12 13:06:37;;;;;;;11.45;4.67;;;;;;;15.42;55.30;101285.18;2102117;83;29482;-64
2022/10/12 13:10:16;;;;;;;12.40;3.77;;;;;;;15.43;55.61;101282.88;2091049;83;27903;-65
2022/10/12 13:13:41;;;;;;;10.85;3.60;;;;;;;15.44;54.66;101272.47;2019755;86;28710;-65
2022/10/12 13:17:15;;;;;;;7.65;3.80;;;;;;;15.39;55.39;101266.94;1996176;86;32446;-66
2022/10/12 13:20:21;;;;;;;6.80;3.37;;;;;;;15.36;54.98;101269.30;2009014;88;34003;-68
2022/10/12 13:23:25;;;;;;;12.73;3.60;;;;;;;15.29;54.30;101265.20;2035100;84;29754;-68
2022/10/12 13:26:28;;;;;;;9.58;3.20;;;;;;;15.21;54.47;101259.33;2051278;85;28299;-69
2022/10/12 13:29:57;;;;;;;10.75;3.58;;;;;;;15.13;54.72;101254.34;2048161;86;29600;-69
2022/10/12 13:33:08;;;;;;;10.03;3.27;;;;;;;15.04;54.41;101258.41;2052698;86;31079;-69
2022/10/12 13:36:29;;;;;;;8.13;3.08;;;;;;;14.94;54.44;101256.67;2048356;86;34420;-74
2022/10/12 13:39:39;;;;;;;12.07;3.80;;;;;;;14.70;54.44;101223.76;2048341;86;30195;-71
2022/10/12 13:42:40;;;;;;;17.20;4.72;;;;;;;14.86;54.84;101257.07;2047138;85;27903;-75
2022/10/12 13:45:46;;;;;;;10.00;4.40;;;;;;;14.78;54.29;101261.12;2040464;86;28833;-73
2022/10/12 13:48:48;;;;;;;13.95;3.05;;;;;;;14.72;54.57;101257.81;2061245;82;31063;-73
2022/10/12 13:51:53;;;;;;;12.50;3.40;;;;;;;14.60;54.40;101243.55;2117976;83;32460;-72
2022/10/12 13:54:56;;;;;;;7.37;3.45;;;;;;;14.66;54.30;101254.03;2068448;84;29374;-72
2022/10/12 13:57:58;;;;;;;9.78;3.30;;;;;;;14.62;54.34;101247.05;2072924;85;27969;-72
2022/10/12 14:00:59;;;;;;;15.18;3.15;;;;;;;14.62;54.32;101251.09;2119760;81;28663;-68
2022/10/12 14:04:04;;;;;;;7.20;2.85;;;;;;;14.63;54.21;101247.94;2121843;82;31409;-66
2022/10/12 14:07:19;;;;;;;9.08;3.10;;;;;;;14.62;54.08;101239.45;2123738;82;33373;-68
2022/10/12 14:10:26;;;;;;;8.48;3.67;;;;;;;14.64;53.83;101241.59;2124360;82;30500;-65
2022/10/12 14:13:31;;;;;;;6.72;2.50;;;;;;;14.61;54.07;101239.05;2125463;82;28360;-74
2022/10/12 14:16:32;;;;;;;14.60;5.15;;;;;;;14.58;53.78;101232.86;2125245;82;29686;-74
2022/10/12 14:19:50;;;;;;;10.00;3.40;;;;;;;14.56;53.68;101231.20;2128099;82;31039;-73